createdAt,value
2023-04-16T00:02:11.237Z,9.10
2023-04-16T00:04:38.453Z,9.00
2023-04-16T00:07:05.609Z,9.00
2023-04-16T00:09:32.578Z,9.00
2023-04-16T00:12:00.276Z,9.10
2023-04-16T00:14:27.245Z,9.00
2023-04-16T00:16:54.426Z,9.00
2023-04-16T00:19:21.800Z,9.00
2023-04-16T00:21:48.818Z,9.10
2023-04-16T00:24:16.190Z,9.00
2023-04-16T00:26:45.369Z,9.00
2023-04-16T00:29:13.068Z,9.00
2023-04-16T00:31:40.524Z,9.00
2023-04-16T00:34:07.494Z,9.10
2023-04-16T00:36:35.142Z,9.00
2023-04-16T00:39:02.693Z,9.00
2023-04-16T00:41:30.670Z,9.00
2023-04-16T00:43:58.081Z,9.10
2023-04-16T00:46:26.319Z,9.10
2023-04-16T00:48:54.762Z,9.10
2023-04-16T00:51:22.650Z,9.10
2023-04-16T00:53:50.918Z,9.00
2023-04-16T00:56:20.474Z,9.00
2023-04-16T00:58:47.870Z,9.00
2023-04-16T01:01:15.227Z,9.00
2023-04-16T01:03:48.918Z,9.00
2023-04-16T01:06:18.333Z,9.00
2023-04-16T01:08:46.507Z,9.00
2023-04-16T01:11:15.556Z,8.90
2023-04-16T01:13:43.028Z,9.00
2023-04-16T01:16:12.350Z,8.80
2023-04-16T01:18:39.903Z,8.80
2023-04-16T01:21:07.332Z,8.80
2023-04-16T01:23:34.809Z,8.80
2023-04-16T01:26:01.927Z,8.80
2023-04-16T01:28:29.732Z,8.80
2023-04-16T01:30:56.763Z,8.90
2023-04-16T01:33:23.825Z,8.90
2023-04-16T01:35:51.231Z,8.80
2023-04-16T01:38:18.557Z,8.80
2023-04-16T01:40:45.909Z,8.80
2023-04-16T01:43:13.150Z,8.70
2023-04-16T01:45:40.627Z,8.70
2023-04-16T01:48:08.642Z,8.60
2023-04-16T01:50:35.894Z,8.60
2023-04-16T01:53:05.239Z,8.60
2023-04-16T01:55:34.669Z,8.60
2023-04-16T01:58:02.259Z,8.60
2023-04-16T02:00:29.373Z,8.60
2023-04-16T02:02:56.736Z,8.60
2023-04-16T02:05:24.149Z,8.60
2023-04-16T02:07:51.691Z,8.60
2023-04-16T02:10:19.215Z,8.50
2023-04-16T02:12:46.838Z,8.50
2023-04-16T02:15:16.486Z,8.50
2023-04-16T02:17:43.607Z,8.40
2023-04-16T02:20:11.583Z,8.40
2023-04-16T02:22:38.634Z,8.40
2023-04-16T02:25:06.304Z,8.30
2023-04-16T02:27:33.738Z,8.20
2023-04-16T02:30:01.085Z,8.20
2023-04-16T02:32:28.152Z,8.10
2023-04-16T02:34:57.027Z,8.10
2023-04-16T02:37:26.279Z,8.00
2023-04-16T02:39:53.519Z,8.00
2023-04-16T02:42:20.959Z,7.90
2023-04-16T02:44:48.232Z,7.80
2023-04-16T02:47:15.743Z,7.80
2023-04-16T02:49:43.456Z,7.70
2023-04-16T02:52:10.556Z,7.70
2023-04-16T02:54:37.715Z,7.60
2023-04-16T02:57:06.128Z,7.60
2023-04-16T02:59:33.298Z,7.60
2023-04-16T03:02:00.348Z,7.50
2023-04-16T03:04:27.750Z,7.40
2023-04-16T03:06:55.093Z,7.40
2023-04-16T03:09:22.232Z,7.30
2023-04-16T03:11:49.205Z,7.30
2023-04-16T03:14:16.585Z,7.20
2023-04-16T03:16:43.671Z,7.20
2023-04-16T03:19:10.938Z,7.10
2023-04-16T03:21:38.413Z,7.10
2023-04-16T03:24:05.745Z,7.10
2023-04-16T03:26:32.895Z,7.10
2023-04-16T03:29:00.524Z,7.20
2023-04-16T03:31:28.150Z,7.20
2023-04-16T03:33:55.140Z,7.20
2023-04-16T03:36:23.009Z,7.30
2023-04-16T03:38:51.047Z,7.30
2023-04-16T03:41:18.623Z,7.30
2023-04-16T03:43:45.727Z,7.30
2023-04-16T03:46:13.026Z,7.30
2023-04-16T03:48:40.096Z,7.40
2023-04-16T03:51:07.109Z,7.40
2023-04-16T03:53:34.174Z,7.50
2023-04-16T03:56:01.387Z,7.50
2023-04-16T03:58:28.502Z,7.50
2023-04-16T04:00:55.894Z,7.50
2023-04-16T04:03:23.033Z,7.50
2023-04-16T04:05:51.090Z,7.50
2023-04-16T04:08:18.128Z,7.50
2023-04-16T04:10:45.951Z,7.60
2023-04-16T04:13:13.383Z,7.60
2023-04-16T04:15:40.920Z,7.60
2023-04-16T04:18:08.210Z,7.60
2023-04-16T04:20:38.957Z,7.60
2023-04-16T04:23:06.700Z,7.60
2023-04-16T04:25:33.651Z,7.60
2023-04-16T04:28:00.745Z,7.60
2023-04-16T04:30:27.957Z,7.60
2023-04-16T04:32:54.904Z,7.60
2023-04-16T04:35:22.240Z,7.60
2023-04-16T04:37:49.863Z,7.60
2023-04-16T04:40:16.979Z,7.60
2023-04-16T04:42:43.921Z,7.60
2023-04-16T04:45:11.914Z,7.60
2023-04-16T04:47:39.170Z,7.50
2023-04-16T04:50:06.952Z,7.60
2023-04-16T04:52:34.334Z,7.60
2023-04-16T04:55:01.945Z,7.60
2023-04-16T04:57:28.903Z,7.60
2023-04-16T04:59:55.984Z,7.60
2023-04-16T05:02:23.223Z,7.60
2023-04-16T05:04:50.984Z,7.60
2023-04-16T05:07:18.531Z,7.60
2023-04-16T05:09:45.631Z,7.60
2023-04-16T05:12:12.648Z,7.60
2023-04-16T05:14:39.805Z,7.60
2023-04-16T05:17:08.182Z,7.50
2023-04-16T05:19:35.509Z,7.60
2023-04-16T05:22:02.971Z,7.50
2023-04-16T05:24:30.021Z,7.50
2023-04-16T05:26:57.923Z,7.60
2023-04-16T05:29:25.088Z,7.50
2023-04-16T05:31:52.321Z,7.60
2023-04-16T05:34:19.416Z,7.60
2023-04-16T05:36:46.424Z,7.60
2023-04-16T05:39:13.465Z,7.60
2023-04-16T05:41:40.417Z,7.60
2023-04-16T05:44:07.319Z,7.70
2023-04-16T05:46:34.830Z,7.70
2023-04-16T05:49:01.942Z,7.70
2023-04-16T05:51:29.654Z,7.80
2023-04-16T05:53:57.631Z,7.90
2023-04-16T05:56:25.898Z,7.90
2023-04-16T05:58:52.901Z,8.00
2023-04-16T06:01:21.445Z,8.10
2023-04-16T06:03:49.518Z,8.10
2023-04-16T06:06:16.807Z,8.10
2023-04-16T06:08:44.376Z,8.10
2023-04-16T06:11:11.640Z,8.00
2023-04-16T06:13:39.620Z,8.00
2023-04-16T06:16:07.096Z,8.10
2023-04-16T06:18:34.233Z,8.10
2023-04-16T06:21:05.358Z,8.10
2023-04-16T06:23:34.129Z,8.20
2023-04-16T06:26:01.613Z,8.20
2023-04-16T06:28:28.705Z,8.30
2023-04-16T06:30:56.091Z,8.20
2023-04-16T06:33:23.656Z,8.30
2023-04-16T06:35:51.019Z,8.30
2023-04-16T06:38:18.907Z,8.30
2023-04-16T06:40:46.062Z,8.40
2023-04-16T06:43:13.408Z,8.50
2023-04-16T06:45:40.592Z,8.60
2023-04-16T06:48:07.713Z,8.60
2023-04-16T06:50:34.816Z,8.80
2023-04-16T06:53:02.785Z,8.90
2023-04-16T06:55:29.953Z,9.00
2023-04-16T06:57:57.141Z,9.10
2023-04-16T07:00:24.103Z,9.30
2023-04-16T07:02:51.287Z,9.40
2023-04-16T07:05:18.730Z,9.40
2023-04-16T07:07:45.714Z,9.40
2023-04-16T07:10:13.079Z,9.40
2023-04-16T07:12:40.232Z,9.40
2023-04-16T07:15:08.101Z,9.40
2023-04-16T07:17:35.176Z,9.30
2023-04-16T07:20:02.760Z,9.30
2023-04-16T07:22:29.911Z,9.30
2023-04-16T07:24:57.089Z,9.30
2023-04-16T07:27:24.385Z,9.30
2023-04-16T07:29:51.596Z,9.30
2023-04-16T07:32:19.041Z,9.30
2023-04-16T07:34:46.240Z,9.40
2023-04-16T07:37:13.365Z,9.30
2023-04-16T07:39:40.512Z,9.40
2023-04-16T07:42:07.767Z,9.40
2023-04-16T07:44:34.807Z,9.40
2023-04-16T07:47:03.477Z,9.40
2023-04-16T07:49:32.280Z,9.30
2023-04-16T07:51:59.210Z,9.30
2023-04-16T07:54:28.429Z,9.20
2023-04-16T07:56:56.512Z,9.20
2023-04-16T07:59:24.516Z,9.20
2023-04-16T08:01:54.028Z,9.20
2023-04-16T08:04:25.709Z,9.20
2023-04-16T08:06:54.081Z,9.20
2023-04-16T08:09:23.223Z,9.20
2023-04-16T08:11:50.948Z,9.20
2023-04-16T08:14:18.410Z,9.30
2023-04-16T08:16:46.003Z,9.30
2023-04-16T08:19:13.471Z,9.30
2023-04-16T08:21:41.085Z,9.40
2023-04-16T08:24:08.293Z,9.40
2023-04-16T08:26:35.599Z,9.30
2023-04-16T08:29:02.713Z,9.30
2023-04-16T08:31:29.783Z,9.30
2023-04-16T08:33:56.777Z,9.20
2023-04-16T08:36:24.672Z,9.20
2023-04-16T08:38:52.401Z,9.10
2023-04-16T08:41:22.247Z,9.10
2023-04-16T08:43:51.922Z,9.10
2023-04-16T08:46:22.869Z,9.10
2023-04-16T08:48:54.005Z,9.10
2023-04-16T08:51:22.638Z,9.10
2023-04-16T08:53:54.567Z,9.20
2023-04-16T08:56:25.509Z,9.20
2023-04-16T08:58:55.136Z,9.30
2023-04-16T09:01:24.907Z,9.30
2023-04-16T09:03:52.925Z,9.30
2023-04-16T09:06:21.225Z,9.30
2023-04-16T09:08:49.443Z,9.40
2023-04-16T09:11:20.122Z,9.40
2023-04-16T09:13:48.086Z,9.40
2023-04-16T09:16:15.952Z,9.50
2023-04-16T09:18:43.897Z,9.60
2023-04-16T09:21:11.421Z,9.80
2023-04-16T09:23:39.096Z,9.90
2023-04-16T09:26:06.476Z,10.00
2023-04-16T09:28:44.759Z,10.00
2023-04-16T09:31:14.628Z,9.90
2023-04-16T09:33:43.463Z,9.90
2023-04-16T09:36:11.357Z,9.90
2023-04-16T09:38:54.926Z,9.80
2023-04-16T09:41:28.940Z,9.90
2023-04-16T09:44:04.820Z,9.90
2023-04-16T09:46:37.079Z,10.00
2023-04-16T09:49:19.363Z,10.00
2023-04-16T09:51:50.043Z,10.00
2023-04-16T09:54:16.933Z,9.90
2023-04-16T09:56:45.801Z,9.90
2023-04-16T09:59:22.960Z,9.80
2023-04-16T10:01:57.324Z,9.80
2023-04-16T10:04:51.879Z,9.80
2023-04-16T10:07:19.931Z,9.90
2023-04-16T10:09:52.980Z,9.90
2023-04-16T10:12:20.412Z,9.80
2023-04-16T10:14:50.072Z,9.90
2023-04-16T10:17:18.141Z,9.90
2023-04-16T10:19:47.261Z,10.00
2023-04-16T10:22:14.958Z,10.10
2023-04-16T10:24:43.163Z,10.10
2023-04-16T10:27:11.158Z,10.10
2023-04-16T10:29:39.441Z,10.10
2023-04-16T10:32:07.624Z,10.00
2023-04-16T10:34:37.085Z,9.80
2023-04-16T10:37:04.431Z,9.80
2023-04-16T10:39:37.260Z,9.80
2023-04-16T10:42:12.460Z,9.80
2023-04-16T10:44:44.263Z,9.90
2023-04-16T10:47:13.579Z,10.00
2023-04-16T10:49:41.757Z,10.00
2023-04-16T10:52:17.834Z,10.00
2023-04-16T10:54:46.546Z,10.00
2023-04-16T10:57:17.983Z,10.10
2023-04-16T10:59:46.156Z,10.10
2023-04-16T11:02:18.337Z,10.10
2023-04-16T11:04:48.270Z,10.10
2023-04-16T11:07:24.350Z,10.20
2023-04-16T11:09:53.369Z,10.10
2023-04-16T11:12:22.908Z,10.10
2023-04-16T11:14:55.020Z,10.10
2023-04-16T11:17:22.909Z,10.10
2023-04-16T11:19:53.619Z,10.10
2023-04-16T11:22:21.669Z,10.20
2023-04-16T11:24:55.890Z,10.20
2023-04-16T11:27:25.110Z,10.30
2023-04-16T11:30:00.186Z,10.30
2023-04-16T11:32:27.926Z,10.30
2023-04-16T11:34:56.487Z,10.30
2023-04-16T11:37:43.317Z,10.40
2023-04-16T11:40:11.476Z,10.50
2023-04-16T11:42:41.268Z,10.50
2023-04-16T11:45:10.403Z,10.60
2023-04-16T11:47:53.814Z,10.70
2023-04-16T11:50:26.816Z,10.70
2023-04-16T11:52:56.846Z,10.80
2023-04-16T11:55:24.883Z,10.90
2023-04-16T11:57:52.464Z,11.10
2023-04-16T12:00:24.335Z,11.20
2023-04-16T12:02:55.734Z,11.30
2023-04-16T12:05:37.620Z,11.40
2023-04-16T12:08:31.533Z,11.40
2023-04-16T12:11:00.085Z,11.40
2023-04-16T12:13:27.470Z,11.40
2023-04-16T12:15:56.732Z,11.40
2023-04-16T12:18:28.547Z,11.40
2023-04-16T12:20:56.293Z,11.40
2023-04-16T12:23:33.361Z,11.40
2023-04-16T12:26:10.994Z,11.40
2023-04-16T12:28:38.988Z,11.40
2023-04-16T12:31:06.583Z,11.40
2023-04-16T12:33:35.019Z,11.40
2023-04-16T12:36:17.078Z,11.30
2023-04-16T12:38:44.181Z,11.30
2023-04-16T12:41:11.622Z,11.20
2023-04-16T12:43:39.267Z,11.20
2023-04-16T12:46:07.169Z,11.10
2023-04-16T12:48:35.369Z,11.10
2023-04-16T12:51:02.925Z,11.10
2023-04-16T12:53:30.289Z,11.10
2023-04-16T12:55:58.280Z,11.20
2023-04-16T12:58:25.855Z,11.20
2023-04-16T13:00:52.826Z,11.30
2023-04-16T13:03:22.444Z,11.30
2023-04-16T13:05:49.573Z,11.60
2023-04-16T13:08:17.572Z,11.70
2023-04-16T13:10:44.503Z,11.80
2023-04-16T13:13:12.527Z,11.90
2023-04-16T13:15:39.735Z,12.00
2023-04-16T13:18:06.789Z,12.00
2023-04-16T13:20:34.529Z,12.10
2023-04-16T13:23:01.498Z,12.20
2023-04-16T13:25:29.715Z,12.40
2023-04-16T13:27:56.745Z,12.50
2023-04-16T13:30:23.803Z,12.50
2023-04-16T13:32:50.842Z,12.60
2023-04-16T13:35:17.956Z,12.50
2023-04-16T13:37:45.484Z,12.50
2023-04-16T13:40:13.470Z,12.50
2023-04-16T13:42:41.936Z,12.50
2023-04-16T13:45:09.667Z,12.50
2023-04-16T13:47:37.392Z,12.60
2023-04-16T13:50:04.663Z,12.60
2023-04-16T13:52:31.844Z,12.50
2023-04-16T13:55:00.129Z,12.50
2023-04-16T13:57:28.480Z,12.40
2023-04-16T13:59:59.153Z,12.40
2023-04-16T14:02:26.876Z,12.50
2023-04-16T14:04:54.197Z,12.50
2023-04-16T14:07:22.928Z,12.60
2023-04-16T14:09:52.846Z,12.60
2023-04-16T14:12:22.339Z,12.60
2023-04-16T14:14:49.522Z,12.50
2023-04-16T14:17:17.295Z,12.50
2023-04-16T14:19:44.246Z,12.50
2023-04-16T14:22:18.279Z,12.50
2023-04-16T14:24:46.041Z,12.40
2023-04-16T14:27:13.698Z,12.50
2023-04-16T14:29:42.114Z,12.50
2023-04-16T14:32:09.644Z,12.60
2023-04-16T14:34:37.320Z,12.60
2023-04-16T14:37:05.062Z,12.60
2023-04-16T14:39:32.925Z,12.60
2023-04-16T14:42:00.301Z,12.70
2023-04-16T14:44:27.522Z,12.60
2023-04-16T14:46:59.979Z,12.60
2023-04-16T14:49:43.591Z,12.60
2023-04-16T14:52:38.751Z,12.60
2023-04-16T14:55:08.859Z,12.50
2023-04-16T14:57:41.872Z,12.70
2023-04-16T15:00:14.143Z,12.70
2023-04-16T15:02:41.933Z,12.70
2023-04-16T15:05:10.681Z,12.70
2023-04-16T15:07:37.879Z,12.60
2023-04-16T15:10:05.827Z,12.60
2023-04-16T15:12:33.148Z,12.70
2023-04-16T15:15:00.600Z,12.70
2023-04-16T15:17:29.203Z,12.70
2023-04-16T15:19:58.340Z,12.80
2023-04-16T15:22:26.408Z,12.70
2023-04-16T15:24:54.764Z,12.80
2023-04-16T15:27:21.972Z,12.80
2023-04-16T15:29:49.715Z,12.90
2023-04-16T15:32:16.845Z,12.90
2023-04-16T15:34:43.980Z,12.70
2023-04-16T15:37:14.555Z,12.70
2023-04-16T15:39:42.196Z,12.70
2023-04-16T15:42:11.364Z,12.70
2023-04-16T15:44:38.611Z,12.70
2023-04-16T15:47:08.424Z,12.70
2023-04-16T15:49:36.176Z,12.80
2023-04-16T15:52:03.724Z,12.80
2023-04-16T15:54:32.327Z,12.70
2023-04-16T15:56:59.571Z,12.70
2023-04-16T15:59:27.038Z,12.60
2023-04-16T16:01:54.502Z,12.60
2023-04-16T16:04:23.155Z,12.50
2023-04-16T16:06:51.905Z,12.40
2023-04-16T16:09:25.835Z,12.30
2023-04-16T16:11:55.335Z,12.30
2023-04-16T16:14:23.159Z,12.30
2023-04-16T16:16:51.800Z,12.30
2023-04-16T16:19:20.069Z,12.30
2023-04-16T16:21:47.786Z,12.30
2023-04-16T16:24:16.746Z,12.20
2023-04-16T16:26:44.381Z,12.20
2023-04-16T16:29:13.111Z,12.20
2023-04-16T16:31:41.282Z,12.10
2023-04-16T16:34:12.658Z,12.10
2023-04-16T16:36:47.369Z,12.10
2023-04-16T16:39:14.908Z,12.10
2023-04-16T16:41:42.365Z,12.10
2023-04-16T16:44:11.149Z,12.10
2023-04-16T16:46:38.944Z,12.00
2023-04-16T16:49:07.293Z,12.00
2023-04-16T16:51:35.129Z,12.00
2023-04-16T16:54:02.380Z,12.00
2023-04-16T16:56:30.040Z,11.90
2023-04-16T16:58:57.650Z,11.90
2023-04-16T17:01:26.405Z,11.90
2023-04-16T17:03:54.772Z,11.90
2023-04-16T17:06:23.422Z,11.90
2023-04-16T17:08:51.689Z,11.80
2023-04-16T17:11:19.946Z,11.80
2023-04-16T17:13:48.018Z,11.80
2023-04-16T17:16:17.984Z,11.70
2023-04-16T17:18:45.902Z,11.70
2023-04-16T17:21:15.836Z,11.90
2023-04-16T17:23:44.334Z,11.70
2023-04-16T17:26:15.665Z,11.70
2023-04-16T17:28:43.459Z,11.70
2023-04-16T17:31:12.572Z,11.70
2023-04-16T17:33:40.961Z,11.60
2023-04-16T17:36:09.637Z,11.60
2023-04-16T17:38:37.451Z,11.50
2023-04-16T17:41:05.527Z,11.50
2023-04-16T17:43:32.807Z,11.50
2023-04-16T17:46:00.284Z,11.50
2023-04-16T17:48:28.190Z,11.50
2023-04-16T17:50:55.634Z,11.40
2023-04-16T17:53:23.121Z,11.40
2023-04-16T17:55:56.120Z,11.40
2023-04-16T17:58:26.658Z,11.30
2023-04-16T18:00:54.256Z,11.30
2023-04-16T18:03:22.397Z,11.30
2023-04-16T18:05:49.846Z,11.20
2023-04-16T18:08:17.131Z,11.20
2023-04-16T18:10:44.746Z,11.20
2023-04-16T18:13:12.318Z,11.30
2023-04-16T18:15:40.005Z,11.10
2023-04-16T18:18:07.831Z,11.10
2023-04-16T18:20:35.782Z,11.10
2023-04-16T18:23:03.307Z,11.00
2023-04-16T18:25:34.897Z,11.00
2023-04-16T18:28:04.102Z,11.00
2023-04-16T18:30:31.580Z,11.00
2023-04-16T18:33:26.334Z,10.90
2023-04-16T18:35:48.184Z,10.90
2023-04-16T18:38:15.592Z,10.90
2023-04-16T18:40:43.114Z,10.90
2023-04-16T18:43:10.843Z,10.90
2023-04-16T18:45:38.435Z,10.90
2023-04-16T18:48:06.428Z,10.90
2023-04-16T18:50:34.227Z,10.80
2023-04-16T18:53:02.210Z,10.80
2023-04-16T18:55:30.415Z,10.80
2023-04-16T18:57:58.103Z,10.80
2023-04-16T19:00:25.986Z,10.80
2023-04-16T19:02:53.919Z,10.80
2023-04-16T19:05:22.018Z,10.80
2023-04-16T19:07:49.927Z,10.70
2023-04-16T19:10:18.030Z,10.70
2023-04-16T19:12:45.951Z,10.70
2023-04-16T19:15:15.138Z,10.70
2023-04-16T19:17:42.935Z,10.70
2023-04-16T19:20:12.190Z,10.60
2023-04-16T19:22:40.397Z,10.60
2023-04-16T19:25:08.574Z,10.50
2023-04-16T19:27:36.950Z,10.50
2023-04-16T19:30:05.698Z,10.50
2023-04-16T19:32:33.445Z,10.50
2023-04-16T19:35:01.331Z,10.40
2023-04-16T19:37:29.047Z,10.40
2023-04-16T19:39:56.579Z,10.30
2023-04-16T19:42:24.806Z,10.30
2023-04-16T19:44:52.491Z,10.30
2023-04-16T19:47:20.307Z,10.30
2023-04-16T19:49:48.161Z,10.20
2023-04-16T19:52:17.368Z,10.20
2023-04-16T19:54:45.421Z,10.20
2023-04-16T19:57:13.956Z,10.20
2023-04-16T19:59:41.195Z,10.20
2023-04-16T20:02:08.420Z,10.20
2023-04-16T20:04:36.406Z,10.20
2023-04-16T20:07:05.269Z,10.20
2023-04-16T20:09:32.740Z,10.10
2023-04-16T20:12:01.020Z,10.10
2023-04-16T20:14:28.255Z,10.10
2023-04-16T20:16:55.335Z,10.10
2023-04-16T20:19:26.291Z,10.00
2023-04-16T20:21:53.796Z,10.00
2023-04-16T20:24:24.404Z,10.00
2023-04-16T20:26:52.150Z,9.90
2023-04-16T20:29:19.962Z,9.90
2023-04-16T20:31:46.990Z,9.90
2023-04-16T20:34:15.450Z,9.90
2023-04-16T20:36:43.229Z,9.90
2023-04-16T20:39:11.079Z,9.80
2023-04-16T20:41:44.010Z,9.80
2023-04-16T20:44:18.430Z,9.80
2023-04-16T20:46:49.945Z,9.80
2023-04-16T20:49:18.542Z,9.80
2023-04-16T20:51:46.030Z,9.80
2023-04-16T20:54:13.370Z,9.70
2023-04-16T20:56:41.485Z,9.70
2023-04-16T20:59:10.017Z,9.60
2023-04-16T21:01:37.612Z,9.60
2023-04-16T21:04:06.236Z,9.50
2023-04-16T21:06:38.744Z,9.50
2023-04-16T21:09:07.409Z,9.60
2023-04-16T21:11:35.540Z,9.40
2023-04-16T21:14:07.057Z,9.30
2023-04-16T21:16:34.677Z,9.30
2023-04-16T21:19:02.702Z,9.30
2023-04-16T21:21:30.076Z,9.30
2023-04-16T21:23:57.225Z,9.20
2023-04-16T21:26:26.134Z,9.20
2023-04-16T21:28:55.132Z,9.20
2023-04-16T21:31:24.318Z,9.20
2023-04-16T21:33:51.849Z,9.30
2023-04-16T21:36:18.926Z,9.30
2023-04-16T21:38:46.308Z,9.20
2023-04-16T21:41:13.944Z,9.20
2023-04-16T21:43:42.738Z,9.20
2023-04-16T21:56:52.748Z,9.20
2023-04-16T21:59:43.930Z,9.10
2023-04-16T22:02:10.971Z,9.10
2023-04-16T22:05:33.599Z,9.20
2023-04-16T22:08:24.894Z,9.20
2023-04-16T22:10:58.954Z,9.20
2023-04-16T22:13:26.459Z,9.10
2023-04-16T22:20:47.192Z,9.20
2023-04-16T22:23:14.665Z,9.20
2023-04-16T22:25:57.176Z,9.20
2023-04-16T22:28:55.136Z,9.20
2023-04-16T22:31:36.401Z,9.30
2023-04-16T22:34:13.720Z,9.10
2023-04-16T22:39:51.681Z,9.20
2023-04-16T22:42:26.279Z,9.20
2023-04-16T22:48:20.640Z,9.20
2023-04-16T22:48:44.732Z,9.20
2023-04-16T22:51:04.499Z,9.20
2023-04-16T22:53:46.857Z,9.20
2023-04-16T22:56:47.806Z,9.20
2023-04-16T22:59:08.669Z,9.00
2023-04-16T23:15:07.692Z,9.00
2023-04-16T23:18:21.085Z,9.10
2023-04-16T23:21:03.254Z,9.00
2023-04-16T23:23:38.854Z,9.00
2023-04-16T23:26:22.630Z,8.90
2023-04-16T23:28:49.485Z,9.00
2023-04-16T23:31:28.522Z,8.90
2023-04-16T23:33:55.515Z,9.00
2023-04-16T23:39:17.376Z,8.90
2023-04-16T23:41:56.725Z,8.90
2023-04-16T23:44:27.579Z,8.90
2023-04-16T23:50:58.543Z,8.80
2023-04-16T23:53:26.234Z,8.80
2023-04-16T23:55:53.272Z,8.80
2023-04-16T23:58:20.743Z,8.80
